Hovedside
METAR-TAF:

METAR-TAF

Lufthavner :

Bornholms lufthavn

Rønne, Danmark

breddegrad: 55-04N, lengdegrad: 014-45E, høyde over havet: 16 m

Gjeldene værobservasjon

Denne rapporten ble laget for 19 minutter siden, klokken 11:20 UTC
Vind 16 kt fra Vest
Temperatur 16°C
Luftfuktighet 72%
Trykk 1014 hPa
Sikt mindre enn 50 m

METAR: EKRN 191120Z AUTO 27016KT 0000 R11///// R29///// // FEW017/// 16/11 Q1014

Tid: 13:39 (11:39 UTC)

Varsel

Denne rapporten ble laget for 3 timer og 39 minutter siden, klokken 08:00 UTC
Varsel gyldig fra 19. klokken 09 UTC til 19. klokken 18 UTC
Vind 5 kt fra skiftende retning
Sikt 10 km eller mer
Brutte skyer i en høyde av 15000 ft
Blir
fra 19. klokken 10 UTC til 19. klokken 12 UTC
Vind 15 kt fra Vest

TAF: EKRN 190800Z 1909/1918 VRB05KT 9999 BKN150 BECMG 1910/1912 27015KT

Værobservasjoner og værvarsel for over 4000 flyplasser (METAR- og TAF-rapporter).

Tilgjengelige stasjoner er representert av de røde og gule prikkene på kartet.

Hold musepekeren over prikken for å se navnet på stasjonen.

Klikk så for å se værobservasjoner og -varsler.

For å forandre kartet kan du klikke på den grønne knappen med svart kryss for å zoome inn, på den grønne knappen med strek for å zoome ut, eller på de grønne pilene for å se tilstøtende kart.


METAR-TAF: